sensor_id;sensor_type;location;lat;lon;timestamp;P1;durP1;ratioP1;P2;durP2;ratioP2
60239;SDS011;46102;39.012;-7.064;2023-04-28T00:00:33;7.60;;;1.70;;
60239;SDS011;46102;39.012;-7.064;2023-04-28T00:02:36;3.28;;;1.60;;
60239;SDS011;46102;39.012;-7.064;2023-04-28T00:04:36;5.20;;;1.60;;
60239;SDS011;46102;39.012;-7.064;2023-04-28T00:06:37;6.25;;;1.90;;
60239;SDS011;46102;39.012;-7.064;2023-04-28T00:08:38;2.33;;;1.60;;
60239;SDS011;46102;39.012;-7.064;2023-04-28T00:10:38;2.22;;;1.60;;
60239;SDS011;46102;39.012;-7.064;2023-04-28T00:12:39;5.57;;;1.77;;
60239;SDS011;46102;39.012;-7.064;2023-04-28T00:14:40;3.47;;;1.65;;
60239;SDS011;46102;39.012;-7.064;2023-04-28T00:16:41;4.45;;;2.58;;
60239;SDS011;46102;39.012;-7.064;2023-04-28T00:18:41;3.05;;;1.70;;
60239;SDS011;46102;39.012;-7.064;2023-04-28T00:20:42;1.83;;;1.67;;
60239;SDS011;46102;39.012;-7.064;2023-04-28T00:22:43;2.83;;;1.80;;
60239;SDS011;46102;39.012;-7.064;2023-04-28T00:24:44;1.60;;;1.27;;
60239;SDS011;46102;39.012;-7.064;2023-04-28T00:26:45;2.03;;;1.65;;
60239;SDS011;46102;39.012;-7.064;2023-04-28T00:28:46;5.53;;;1.73;;
60239;SDS011;46102;39.012;-7.064;2023-04-28T00:30:46;2.33;;;1.50;;
60239;SDS011;46102;39.012;-7.064;2023-04-28T00:32:47;5.97;;;2.22;;
60239;SDS011;46102;39.012;-7.064;2023-04-28T00:34:48;2.63;;;1.70;;
60239;SDS011;46102;39.012;-7.064;2023-04-28T00:36:48;2.65;;;1.63;;
60239;SDS011;46102;39.012;-7.064;2023-04-28T00:38:52;3.35;;;1.85;;
60239;SDS011;46102;39.012;-7.064;2023-04-28T00:40:53;1.80;;;1.50;;
60239;SDS011;46102;39.012;-7.064;2023-04-28T00:42:54;4.05;;;1.50;;
60239;SDS011;46102;39.012;-7.064;2023-04-28T00:44:54;3.92;;;1.95;;
60239;SDS011;46102;39.012;-7.064;2023-04-28T00:46:55;1.60;;;1.50;;
60239;SDS011;46102;39.012;-7.064;2023-04-28T00:48:57;6.75;;;1.90;;
60239;SDS011;46102;39.012;-7.064;2023-04-28T00:50:58;5.28;;;1.65;;
60239;SDS011;46102;39.012;-7.064;2023-04-28T00:52:59;2.80;;;1.92;;
60239;SDS011;46102;39.012;-7.064;2023-04-28T00:55:01;3.88;;;1.83;;
60239;SDS011;46102;39.012;-7.064;2023-04-28T00:57:02;8.38;;;2.05;;
60239;SDS011;46102;39.012;-7.064;2023-04-28T00:59:04;3.55;;;1.70;;
60239;SDS011;46102;39.012;-7.064;2023-04-28T01:01:05;4.55;;;1.48;;
60239;SDS011;46102;39.012;-7.064;2023-04-28T01:03:07;2.53;;;1.60;;
60239;SDS011;46102;39.012;-7.064;2023-04-28T01:05:08;3.28;;;2.00;;
60239;SDS011;46102;39.012;-7.064;2023-04-28T01:07:11;2.60;;;1.40;;
60239;SDS011;46102;39.012;-7.064;2023-04-28T01:09:12;2.38;;;1.58;;
60239;SDS011;46102;39.012;-7.064;2023-04-28T01:11:13;1.65;;;1.55;;
60239;SDS011;46102;39.012;-7.064;2023-04-28T01:13:32;2.00;;;1.65;;
60239;SDS011;46102;39.012;-7.064;2023-04-28T01:15:33;4.20;;;2.20;;
60239;SDS011;46102;39.012;-7.064;2023-04-28T01:17:34;3.83;;;1.92;;
60239;SDS011;46102;39.012;-7.064;2023-04-28T01:19:35;4.15;;;1.83;;
60239;SDS011;46102;39.012;-7.064;2023-04-28T01:21:36;6.53;;;1.80;;
60239;SDS011;46102;39.012;-7.064;2023-04-28T01:23:57;3.60;;;1.95;;
60239;SDS011;46102;39.012;-7.064;2023-04-28T01:25:58;3.60;;;1.38;;
60239;SDS011;46102;39.012;-7.064;2023-04-28T01:27:59;2.75;;;1.58;;
60239;SDS011;46102;39.012;-7.064;2023-04-28T01:30:01;4.82;;;2.17;;
60239;SDS011;46102;39.012;-7.064;2023-04-28T01:32:02;1.50;;;1.40;;
60239;SDS011;46102;39.012;-7.064;2023-04-28T01:34:03;7.35;;;1.70;;
60239;SDS011;46102;39.012;-7.064;2023-04-28T01:36:04;2.20;;;2.00;;
60239;SDS011;46102;39.012;-7.064;2023-04-28T01:38:05;1.85;;;1.30;;
60239;SDS011;46102;39.012;-7.064;2023-04-28T01:40:06;2.70;;;1.52;;
60239;SDS011;46102;39.012;-7.064;2023-04-28T01:42:07;2.40;;;1.67;;
60239;SDS011;46102;39.012;-7.064;2023-04-28T01:44:08;1.92;;;1.23;;
60239;SDS011;46102;39.012;-7.064;2023-04-28T01:46:09;4.45;;;1.30;;
60239;SDS011;46102;39.012;-7.064;2023-04-28T01:48:10;4.10;;;1.60;;
60239;SDS011;46102;39.012;-7.064;2023-04-28T01:50:11;3.30;;;1.33;;
60239;SDS011;46102;39.012;-7.064;2023-04-28T01:52:11;1.60;;;1.40;;
60239;SDS011;46102;39.012;-7.064;2023-04-28T01:54:12;2.28;;;1.60;;
60239;SDS011;46102;39.012;-7.064;2023-04-28T01:56:13;2.53;;;1.65;;
60239;SDS011;46102;39.012;-7.064;2023-04-28T01:58:14;3.78;;;1.92;;
60239;SDS011;46102;39.012;-7.064;2023-04-28T02:00:15;5.20;;;2.22;;
60239;SDS011;46102;39.012;-7.064;2023-04-28T02:02:21;5.55;;;2.20;;
60239;SDS011;46102;39.012;-7.064;2023-04-28T02:04:22;2.53;;;2.00;;
60239;SDS011;46102;39.012;-7.064;2023-04-28T02:06:23;5.35;;;2.15;;
60239;SDS011;46102;39.012;-7.064;2023-04-28T02:08:23;6.28;;;2.72;;
60239;SDS011;46102;39.012;-7.064;2023-04-28T02:10:25;6.78;;;1.90;;
60239;SDS011;46102;39.012;-7.064;2023-04-28T02:12:26;10.13;;;1.63;;
60239;SDS011;46102;39.012;-7.064;2023-04-28T02:14:27;4.57;;;2.30;;
60239;SDS011;46102;39.012;-7.064;2023-04-28T02:16:28;4.50;;;2.08;;
60239;SDS011;46102;39.012;-7.064;2023-04-28T02:18:29;4.20;;;2.17;;
60239;SDS011;46102;39.012;-7.064;2023-04-28T02:20:33;3.47;;;1.60;;
60239;SDS011;46102;39.012;-7.064;2023-04-28T02:22:34;4.07;;;2.00;;
60239;SDS011;46102;39.012;-7.064;2023-04-28T02:24:35;2.60;;;1.38;;
60239;SDS011;46102;39.012;-7.064;2023-04-28T02:26:36;6.32;;;1.92;;
60239;SDS011;46102;39.012;-7.064;2023-04-28T02:28:37;3.33;;;1.65;;
60239;SDS011;46102;39.012;-7.064;2023-04-28T02:30:39;1.95;;;1.80;;
60239;SDS011;46102;39.012;-7.064;2023-04-28T02:32:40;6.57;;;1.88;;
60239;SDS011;46102;39.012;-7.064;2023-04-28T02:34:40;4.22;;;1.80;;
60239;SDS011;46102;39.012;-7.064;2023-04-28T02:36:41;19.10;;;8.00;;
60239;SDS011;46102;39.012;-7.064;2023-04-28T02:38:42;11.43;;;5.68;;
60239;SDS011;46102;39.012;-7.064;2023-04-28T02:40:43;7.07;;;4.35;;
60239;SDS011;46102;39.012;-7.064;2023-04-28T02:42:44;7.18;;;3.75;;
60239;SDS011;46102;39.012;-7.064;2023-04-28T02:44:44;14.65;;;5.38;;
60239;SDS011;46102;39.012;-7.064;2023-04-28T02:46:45;5.78;;;3.50;;
60239;SDS011;46102;39.012;-7.064;2023-04-28T02:48:46;8.98;;;3.50;;
60239;SDS011;46102;39.012;-7.064;2023-04-28T02:50:47;4.82;;;3.00;;
60239;SDS011;46102;39.012;-7.064;2023-04-28T02:52:48;5.90;;;2.53;;
60239;SDS011;46102;39.012;-7.064;2023-04-28T02:54:49;6.18;;;1.63;;
60239;SDS011;46102;39.012;-7.064;2023-04-28T02:56:54;5.50;;;2.20;;
60239;SDS011;46102;39.012;-7.064;2023-04-28T02:58:55;2.72;;;1.90;;
60239;SDS011;46102;39.012;-7.064;2023-04-28T03:00:56;6.07;;;2.20;;
60239;SDS011;46102;39.012;-7.064;2023-04-28T03:02:57;3.15;;;2.35;;
60239;SDS011;46102;39.012;-7.064;2023-04-28T03:04:58;6.72;;;2.33;;
60239;SDS011;46102;39.012;-7.064;2023-04-28T03:06:59;4.65;;;2.35;;
60239;SDS011;46102;39.012;-7.064;2023-04-28T03:09:00;5.82;;;1.63;;
60239;SDS011;46102;39.012;-7.064;2023-04-28T03:11:03;6.82;;;2.95;;
60239;SDS011;46102;39.012;-7.064;2023-04-28T03:13:05;2.58;;;1.88;;
60239;SDS011;46102;39.012;-7.064;2023-04-28T03:15:06;5.72;;;3.28;;
60239;SDS011;46102;39.012;-7.064;2023-04-28T03:17:09;9.10;;;3.67;;
60239;SDS011;46102;39.012;-7.064;2023-04-28T03:19:11;4.10;;;2.33;;
60239;SDS011;46102;39.012;-7.064;2023-04-28T03:21:12;8.68;;;3.70;;
60239;SDS011;46102;39.012;-7.064;2023-04-28T03:23:13;16.65;;;6.65;;
60239;SDS011;46102;39.012;-7.064;2023-04-28T03:25:14;9.70;;;4.53;;
60239;SDS011;46102;39.012;-7.064;2023-04-28T03:27:21;11.30;;;3.20;;
60239;SDS011;46102;39.012;-7.064;2023-04-28T03:29:23;7.18;;;2.53;;
60239;SDS011;46102;39.012;-7.064;2023-04-28T03:31:25;7.90;;;2.53;;
60239;SDS011;46102;39.012;-7.064;2023-04-28T03:33:25;4.05;;;2.10;;
60239;SDS011;46102;39.012;-7.064;2023-04-28T03:35:27;4.55;;;2.60;;
60239;SDS011;46102;39.012;-7.064;2023-04-28T03:37:28;6.90;;;2.42;;
60239;SDS011;46102;39.012;-7.064;2023-04-28T03:39:29;8.88;;;2.53;;
60239;SDS011;46102;39.012;-7.064;2023-04-28T03:41:30;5.90;;;2.85;;
60239;SDS011;46102;39.012;-7.064;2023-04-28T03:43:53;15.18;;;4.53;;
60239;SDS011;46102;39.012;-7.064;2023-04-28T03:46:04;9.80;;;4.00;;
60239;SDS011;46102;39.012;-7.064;2023-04-28T03:48:05;7.93;;;3.10;;
60239;SDS011;46102;39.012;-7.064;2023-04-28T03:50:06;7.40;;;2.30;;
60239;SDS011;46102;39.012;-7.064;2023-04-28T03:52:08;3.15;;;2.03;;
60239;SDS011;46102;39.012;-7.064;2023-04-28T03:54:09;4.57;;;2.03;;
60239;SDS011;46102;39.012;-7.064;2023-04-28T03:56:10;13.73;;;2.25;;
60239;SDS011;46102;39.012;-7.064;2023-04-28T03:58:12;5.43;;;1.90;;
60239;SDS011;46102;39.012;-7.064;2023-04-28T04:00:13;5.32;;;2.10;;
60239;SDS011;46102;39.012;-7.064;2023-04-28T04:02:19;6.15;;;1.90;;
60239;SDS011;46102;39.012;-7.064;2023-04-28T04:04:19;4.07;;;1.70;;
60239;SDS011;46102;39.012;-7.064;2023-04-28T04:06:20;10.13;;;2.97;;
60239;SDS011;46102;39.012;-7.064;2023-04-28T04:08:22;10.68;;;2.50;;
60239;SDS011;46102;39.012;-7.064;2023-04-28T04:10:23;9.98;;;1.95;;
60239;SDS011;46102;39.012;-7.064;2023-04-28T04:12:24;5.75;;;2.00;;
60239;SDS011;46102;39.012;-7.064;2023-04-28T04:14:24;6.88;;;1.73;;
60239;SDS011;46102;39.012;-7.064;2023-04-28T04:16:25;3.13;;;1.85;;
60239;SDS011;46102;39.012;-7.064;2023-04-28T04:18:29;2.95;;;1.85;;
60239;SDS011;46102;39.012;-7.064;2023-04-28T04:20:45;6.05;;;1.90;;
60239;SDS011;46102;39.012;-7.064;2023-04-28T04:22:46;4.07;;;1.90;;
60239;SDS011;46102;39.012;-7.064;2023-04-28T04:24:48;2.97;;;2.17;;
60239;SDS011;46102;39.012;-7.064;2023-04-28T04:26:49;9.02;;;2.47;;
60239;SDS011;46102;39.012;-7.064;2023-04-28T04:29:11;8.18;;;2.10;;
60239;SDS011;46102;39.012;-7.064;2023-04-28T04:31:12;3.42;;;2.28;;
60239;SDS011;46102;39.012;-7.064;2023-04-28T04:33:13;7.85;;;2.40;;
60239;SDS011;46102;39.012;-7.064;2023-04-28T04:35:13;4.05;;;2.60;;
60239;SDS011;46102;39.012;-7.064;2023-04-28T04:37:14;4.30;;;1.90;;
60239;SDS011;46102;39.012;-7.064;2023-04-28T04:39:22;5.72;;;2.20;;
60239;SDS011;46102;39.012;-7.064;2023-04-28T04:41:24;5.28;;;1.98;;
60239;SDS011;46102;39.012;-7.064;2023-04-28T04:43:38;2.05;;;1.70;;
60239;SDS011;46102;39.012;-7.064;2023-04-28T04:45:38;9.27;;;2.80;;
60239;SDS011;46102;39.012;-7.064;2023-04-28T04:47:40;3.33;;;2.03;;
60239;SDS011;46102;39.012;-7.064;2023-04-28T04:49:40;4.68;;;2.97;;
60239;SDS011;46102;39.012;-7.064;2023-04-28T04:51:41;7.47;;;2.63;;
60239;SDS011;46102;39.012;-7.064;2023-04-28T04:53:43;3.95;;;2.13;;
60239;SDS011;46102;39.012;-7.064;2023-04-28T04:55:44;4.53;;;2.20;;
60239;SDS011;46102;39.012;-7.064;2023-04-28T04:57:45;5.20;;;2.15;;
60239;SDS011;46102;39.012;-7.064;2023-04-28T05:00:01;5.07;;;2.20;;
60239;SDS011;46102;39.012;-7.064;2023-04-28T05:02:04;3.22;;;2.20;;
60239;SDS011;46102;39.012;-7.064;2023-04-28T05:04:05;3.40;;;2.45;;
60239;SDS011;46102;39.012;-7.064;2023-04-28T05:06:05;7.40;;;3.08;;
60239;SDS011;46102;39.012;-7.064;2023-04-28T05:08:14;1.98;;;1.85;;
60239;SDS011;46102;39.012;-7.064;2023-04-28T05:10:15;2.75;;;2.40;;
60239;SDS011;46102;39.012;-7.064;2023-04-28T05:12:16;5.10;;;2.10;;
60239;SDS011;46102;39.012;-7.064;2023-04-28T05:14:17;4.47;;;2.38;;
60239;SDS011;46102;39.012;-7.064;2023-04-28T05:16:18;3.33;;;2.40;;
60239;SDS011;46102;39.012;-7.064;2023-04-28T05:18:35;5.25;;;2.58;;
60239;SDS011;46102;39.012;-7.064;2023-04-28T05:20:36;3.92;;;2.38;;
60239;SDS011;46102;39.012;-7.064;2023-04-28T05:22:37;3.25;;;2.95;;
60239;SDS011;46102;39.012;-7.064;2023-04-28T05:24:38;7.25;;;2.33;;
60239;SDS011;46102;39.012;-7.064;2023-04-28T05:26:38;5.53;;;3.28;;
60239;SDS011;46102;39.012;-7.064;2023-04-28T05:28:42;11.70;;;2.40;;
60239;SDS011;46102;39.012;-7.064;2023-04-28T05:30:43;6.35;;;2.50;;
60239;SDS011;46102;39.012;-7.064;2023-04-28T05:32:45;5.55;;;2.63;;
60239;SDS011;46102;39.012;-7.064;2023-04-28T05:34:46;4.00;;;2.47;;
60239;SDS011;46102;39.012;-7.064;2023-04-28T05:36:47;4.82;;;2.30;;
60239;SDS011;46102;39.012;-7.064;2023-04-28T05:38:48;3.28;;;2.47;;
60239;SDS011;46102;39.012;-7.064;2023-04-28T05:40:49;7.57;;;2.50;;
60239;SDS011;46102;39.012;-7.064;2023-04-28T05:42:51;4.60;;;2.33;;
60239;SDS011;46102;39.012;-7.064;2023-04-28T05:44:51;5.95;;;2.25;;
60239;SDS011;46102;39.012;-7.064;2023-04-28T05:46:52;8.55;;;2.63;;
60239;SDS011;46102;39.012;-7.064;2023-04-28T05:48:58;5.88;;;2.58;;
60239;SDS011;46102;39.012;-7.064;2023-04-28T05:51:01;4.80;;;3.17;;
60239;SDS011;46102;39.012;-7.064;2023-04-28T05:53:01;2.97;;;2.53;;
60239;SDS011;46102;39.012;-7.064;2023-04-28T05:55:03;4.38;;;2.40;;
60239;SDS011;46102;39.012;-7.064;2023-04-28T05:57:05;7.75;;;3.05;;
60239;SDS011;46102;39.012;-7.064;2023-04-28T05:59:05;3.67;;;2.33;;
60239;SDS011;46102;39.012;-7.064;2023-04-28T06:01:06;3.35;;;2.42;;
60239;SDS011;46102;39.012;-7.064;2023-04-28T06:03:07;3.72;;;2.40;;
60239;SDS011;46102;39.012;-7.064;2023-04-28T06:05:10;3.97;;;2.03;;
60239;SDS011;46102;39.012;-7.064;2023-04-28T06:07:11;5.35;;;2.40;;
60239;SDS011;46102;39.012;-7.064;2023-04-28T06:09:12;3.40;;;2.47;;
60239;SDS011;46102;39.012;-7.064;2023-04-28T06:11:13;2.35;;;2.00;;
60239;SDS011;46102;39.012;-7.064;2023-04-28T06:13:15;2.60;;;2.05;;
60239;SDS011;46102;39.012;-7.064;2023-04-28T06:15:15;4.75;;;2.20;;
60239;SDS011;46102;39.012;-7.064;2023-04-28T06:17:16;9.10;;;3.38;;
60239;SDS011;46102;39.012;-7.064;2023-04-28T06:19:17;5.50;;;2.80;;
60239;SDS011;46102;39.012;-7.064;2023-04-28T06:21:18;9.50;;;2.70;;
60239;SDS011;46102;39.012;-7.064;2023-04-28T06:23:20;4.18;;;2.60;;
60239;SDS011;46102;39.012;-7.064;2023-04-28T06:25:27;3.72;;;2.55;;
60239;SDS011;46102;39.012;-7.064;2023-04-28T06:27:28;7.85;;;2.55;;
60239;SDS011;46102;39.012;-7.064;2023-04-28T06:29:32;4.30;;;2.97;;
60239;SDS011;46102;39.012;-7.064;2023-04-28T06:31:32;3.28;;;2.97;;
60239;SDS011;46102;39.012;-7.064;2023-04-28T06:33:33;4.10;;;2.97;;
60239;SDS011;46102;39.012;-7.064;2023-04-28T06:35:34;7.47;;;3.40;;
60239;SDS011;46102;39.012;-7.064;2023-04-28T06:37:37;9.30;;;5.00;;
60239;SDS011;46102;39.012;-7.064;2023-04-28T06:39:38;6.47;;;5.50;;
60239;SDS011;46102;39.012;-7.064;2023-04-28T06:41:40;8.40;;;7.50;;
60239;SDS011;46102;39.012;-7.064;2023-04-28T06:43:42;15.63;;;9.80;;
60239;SDS011;46102;39.012;-7.064;2023-04-28T06:45:47;27.45;;;12.82;;
60239;SDS011;46102;39.012;-7.064;2023-04-28T06:47:48;18.02;;;11.88;;
60239;SDS011;46102;39.012;-7.064;2023-04-28T06:49:50;16.02;;;13.95;;
60239;SDS011;46102;39.012;-7.064;2023-04-28T06:51:51;16.55;;;14.25;;
60239;SDS011;46102;39.012;-7.064;2023-04-28T06:53:52;16.92;;;12.98;;
60239;SDS011;46102;39.012;-7.064;2023-04-28T06:55:53;17.70;;;12.13;;
60239;SDS011;46102;39.012;-7.064;2023-04-28T06:57:54;17.25;;;9.20;;
60239;SDS011;46102;39.012;-7.064;2023-04-28T06:59:55;8.75;;;7.03;;
60239;SDS011;46102;39.012;-7.064;2023-04-28T07:01:55;9.05;;;6.72;;
60239;SDS011;46102;39.012;-7.064;2023-04-28T07:03:56;6.95;;;6.10;;
60239;SDS011;46102;39.012;-7.064;2023-04-28T07:05:57;8.57;;;5.38;;
60239;SDS011;46102;39.012;-7.064;2023-04-28T07:07:58;6.40;;;5.05;;
60239;SDS011;46102;39.012;-7.064;2023-04-28T07:09:59;8.10;;;4.80;;
60239;SDS011;46102;39.012;-7.064;2023-04-28T07:12:00;6.55;;;4.32;;
60239;SDS011;46102;39.012;-7.064;2023-04-28T07:14:01;4.43;;;3.95;;
60239;SDS011;46102;39.012;-7.064;2023-04-28T07:16:02;6.38;;;4.13;;
60239;SDS011;46102;39.012;-7.064;2023-04-28T07:18:03;6.65;;;4.97;;
60239;SDS011;46102;39.012;-7.064;2023-04-28T07:20:04;8.32;;;6.28;;
60239;SDS011;46102;39.012;-7.064;2023-04-28T07:22:06;8.18;;;7.38;;
60239;SDS011;46102;39.012;-7.064;2023-04-28T07:24:07;8.93;;;7.78;;
60239;SDS011;46102;39.012;-7.064;2023-04-28T07:26:07;18.40;;;8.25;;
60239;SDS011;46102;39.012;-7.064;2023-04-28T07:28:08;10.75;;;7.05;;
60239;SDS011;46102;39.012;-7.064;2023-04-28T07:30:09;7.47;;;6.20;;
60239;SDS011;46102;39.012;-7.064;2023-04-28T07:32:10;8.63;;;6.28;;
60239;SDS011;46102;39.012;-7.064;2023-04-28T07:34:11;8.18;;;5.97;;
60239;SDS011;46102;39.012;-7.064;2023-04-28T07:36:12;5.60;;;4.70;;
60239;SDS011;46102;39.012;-7.064;2023-04-28T07:38:12;8.00;;;4.82;;
60239;SDS011;46102;39.012;-7.064;2023-04-28T07:40:13;6.72;;;3.85;;
60239;SDS011;46102;39.012;-7.064;2023-04-28T07:42:14;5.75;;;4.32;;
60239;SDS011;46102;39.012;-7.064;2023-04-28T07:44:15;4.10;;;3.80;;
60239;SDS011;46102;39.012;-7.064;2023-04-28T07:46:16;6.00;;;3.75;;
60239;SDS011;46102;39.012;-7.064;2023-04-28T07:48:17;3.95;;;3.38;;
60239;SDS011;46102;39.012;-7.064;2023-04-28T07:50:18;4.47;;;3.70;;
60239;SDS011;46102;39.012;-7.064;2023-04-28T07:52:19;6.07;;;3.20;;
60239;SDS011;46102;39.012;-7.064;2023-04-28T07:54:20;3.75;;;3.10;;
60239;SDS011;46102;39.012;-7.064;2023-04-28T07:56:21;6.60;;;2.85;;
60239;SDS011;46102;39.012;-7.064;2023-04-28T07:58:22;3.22;;;2.70;;
60239;SDS011;46102;39.012;-7.064;2023-04-28T08:00:23;3.60;;;2.60;;
60239;SDS011;46102;39.012;-7.064;2023-04-28T08:02:24;4.13;;;2.78;;
60239;SDS011;46102;39.012;-7.064;2023-04-28T08:04:26;3.08;;;2.67;;
60239;SDS011;46102;39.012;-7.064;2023-04-28T08:06:27;9.57;;;3.08;;
60239;SDS011;46102;39.012;-7.064;2023-04-28T08:08:28;3.20;;;2.90;;
60239;SDS011;46102;39.012;-7.064;2023-04-28T08:10:29;4.25;;;2.75;;
60239;SDS011;46102;39.012;-7.064;2023-04-28T08:12:30;4.85;;;2.47;;
60239;SDS011;46102;39.012;-7.064;2023-04-28T08:14:31;3.13;;;2.58;;
60239;SDS011;46102;39.012;-7.064;2023-04-28T08:16:32;5.35;;;3.08;;
60239;SDS011;46102;39.012;-7.064;2023-04-28T08:18:35;3.00;;;2.75;;
60239;SDS011;46102;39.012;-7.064;2023-04-28T08:20:36;5.05;;;2.33;;
60239;SDS011;46102;39.012;-7.064;2023-04-28T08:22:37;3.10;;;2.80;;
60239;SDS011;46102;39.012;-7.064;2023-04-28T08:24:38;4.03;;;2.28;;
60239;SDS011;46102;39.012;-7.064;2023-04-28T08:26:39;5.15;;;2.15;;
60239;SDS011;46102;39.012;-7.064;2023-04-28T08:28:40;6.95;;;2.42;;
60239;SDS011;46102;39.012;-7.064;2023-04-28T08:30:41;2.97;;;2.30;;
60239;SDS011;46102;39.012;-7.064;2023-04-28T08:32:42;5.32;;;2.78;;
60239;SDS011;46102;39.012;-7.064;2023-04-28T08:34:43;4.07;;;2.92;;
60239;SDS011;46102;39.012;-7.064;2023-04-28T08:36:43;4.47;;;2.15;;
60239;SDS011;46102;39.012;-7.064;2023-04-28T08:38:44;4.20;;;2.15;;
60239;SDS011;46102;39.012;-7.064;2023-04-28T08:40:45;5.15;;;2.25;;
60239;SDS011;46102;39.012;-7.064;2023-04-28T08:42:46;2.55;;;2.35;;
60239;SDS011;46102;39.012;-7.064;2023-04-28T08:44:47;2.97;;;2.20;;
60239;SDS011;46102;39.012;-7.064;2023-04-28T08:46:52;4.20;;;2.40;;
60239;SDS011;46102;39.012;-7.064;2023-04-28T08:48:58;7.10;;;2.63;;
60239;SDS011;46102;39.012;-7.064;2023-04-28T08:51:03;2.38;;;2.17;;
60239;SDS011;46102;39.012;-7.064;2023-04-28T08:53:05;3.22;;;2.17;;
60239;SDS011;46102;39.012;-7.064;2023-04-28T08:55:07;2.50;;;2.30;;
60239;SDS011;46102;39.012;-7.064;2023-04-28T08:57:09;2.70;;;1.67;;
60239;SDS011;46102;39.012;-7.064;2023-04-28T08:59:11;6.38;;;2.50;;
60239;SDS011;46102;39.012;-7.064;2023-04-28T09:01:13;2.30;;;2.20;;
60239;SDS011;46102;39.012;-7.064;2023-04-28T09:03:14;3.38;;;2.83;;
60239;SDS011;46102;39.012;-7.064;2023-04-28T09:05:15;4.30;;;2.60;;
60239;SDS011;46102;39.012;-7.064;2023-04-28T09:07:15;5.55;;;2.83;;
60239;SDS011;46102;39.012;-7.064;2023-04-28T09:09:21;8.93;;;3.25;;
60239;SDS011;46102;39.012;-7.064;2023-04-28T09:11:26;3.35;;;2.88;;
60239;SDS011;46102;39.012;-7.064;2023-04-28T09:13:26;3.08;;;2.70;;
60239;SDS011;46102;39.012;-7.064;2023-04-28T09:15:32;3.17;;;2.97;;
60239;SDS011;46102;39.012;-7.064;2023-04-28T09:17:47;4.15;;;3.85;;
60239;SDS011;46102;39.012;-7.064;2023-04-28T09:19:49;3.70;;;3.35;;
60239;SDS011;46102;39.012;-7.064;2023-04-28T09:21:53;7.55;;;4.30;;
60239;SDS011;46102;39.012;-7.064;2023-04-28T09:23:55;5.00;;;4.40;;
60239;SDS011;46102;39.012;-7.064;2023-04-28T09:26:00;5.97;;;4.43;;
60239;SDS011;46102;39.012;-7.064;2023-04-28T09:28:18;5.95;;;5.35;;
60239;SDS011;46102;39.012;-7.064;2023-04-28T09:30:36;7.18;;;5.28;;
60239;SDS011;46102;39.012;-7.064;2023-04-28T09:32:39;5.55;;;4.97;;
60239;SDS011;46102;39.012;-7.064;2023-04-28T09:34:49;5.68;;;4.82;;
60239;SDS011;46102;39.012;-7.064;2023-04-28T09:36:51;5.97;;;5.22;;
60239;SDS011;46102;39.012;-7.064;2023-04-28T09:38:52;7.57;;;4.50;;
60239;SDS011;46102;39.012;-7.064;2023-04-28T09:41:00;4.82;;;4.43;;
60239;SDS011;46102;39.012;-7.064;2023-04-28T09:43:01;4.45;;;3.72;;
60239;SDS011;46102;39.012;-7.064;2023-04-28T09:45:22;6.63;;;4.40;;
60239;SDS011;46102;39.012;-7.064;2023-04-28T09:47:23;6.70;;;3.60;;
60239;SDS011;46102;39.012;-7.064;2023-04-28T09:49:24;5.47;;;3.55;;
60239;SDS011;46102;39.012;-7.064;2023-04-28T09:51:25;3.85;;;3.55;;
60239;SDS011;46102;39.012;-7.064;2023-04-28T09:53:27;3.30;;;3.00;;
60239;SDS011;46102;39.012;-7.064;2023-04-28T09:55:28;5.50;;;2.88;;
60239;SDS011;46102;39.012;-7.064;2023-04-28T09:57:31;3.00;;;2.70;;
60239;SDS011;46102;39.012;-7.064;2023-04-28T09:59:33;2.97;;;2.78;;
60239;SDS011;46102;39.012;-7.064;2023-04-28T10:01:37;5.53;;;1.90;;
60239;SDS011;46102;39.012;-7.064;2023-04-28T10:03:39;4.03;;;2.30;;
60239;SDS011;46102;39.012;-7.064;2023-04-28T10:05:42;4.57;;;1.80;;
60239;SDS011;46102;39.012;-7.064;2023-04-28T10:07:43;5.68;;;1.63;;
60239;SDS011;46102;39.012;-7.064;2023-04-28T10:09:44;2.85;;;1.33;;
60239;SDS011;46102;39.012;-7.064;2023-04-28T10:11:52;1.48;;;1.38;;
60239;SDS011;46102;39.012;-7.064;2023-04-28T10:13:53;2.70;;;1.38;;
60239;SDS011;46102;39.012;-7.064;2023-04-28T10:15:54;4.22;;;1.38;;
60239;SDS011;46102;39.012;-7.064;2023-04-28T10:17:57;1.58;;;1.30;;
60239;SDS011;46102;39.012;-7.064;2023-04-28T10:19:59;2.90;;;1.55;;
60239;SDS011;46102;39.012;-7.064;2023-04-28T10:24:03;3.60;;;1.42;;
60239;SDS011;46102;39.012;-7.064;2023-04-28T10:26:10;2.38;;;1.10;;
60239;SDS011;46102;39.012;-7.064;2023-04-28T10:28:13;2.03;;;1.30;;
60239;SDS011;46102;39.012;-7.064;2023-04-28T10:30:17;3.70;;;1.20;;
60239;SDS011;46102;39.012;-7.064;2023-04-28T10:32:20;3.72;;;1.25;;
60239;SDS011;46102;39.012;-7.064;2023-04-28T10:34:24;2.15;;;1.10;;
60239;SDS011;46102;39.012;-7.064;2023-04-28T10:36:46;3.05;;;1.05;;
60239;SDS011;46102;39.012;-7.064;2023-04-28T10:39:07;1.70;;;1.20;;
60239;SDS011;46102;39.012;-7.064;2023-04-28T10:41:30;1.98;;;1.20;;
60239;SDS011;46102;39.012;-7.064;2023-04-28T10:43:32;3.45;;;1.40;;
60239;SDS011;46102;39.012;-7.064;2023-04-28T10:48:03;3.97;;;1.30;;
60239;SDS011;46102;39.012;-7.064;2023-04-28T10:50:06;1.47;;;1.10;;
60239;SDS011;46102;39.012;-7.064;2023-04-28T10:54:39;4.95;;;1.48;;
60239;SDS011;46102;39.012;-7.064;2023-04-28T10:56:40;4.43;;;1.77;;
60239;SDS011;46102;39.012;-7.064;2023-04-28T10:59:02;0.88;;;0.85;;
60239;SDS011;46102;39.012;-7.064;2023-04-28T11:01:28;1.15;;;0.90;;
60239;SDS011;46102;39.012;-7.064;2023-04-28T11:05:36;3.38;;;1.10;;
60239;SDS011;46102;39.012;-7.064;2023-04-28T11:07:37;6.35;;;0.93;;
60239;SDS011;46102;39.012;-7.064;2023-04-28T11:14:40;4.30;;;1.10;;
60239;SDS011;46102;39.012;-7.064;2023-04-28T11:16:17;1.88;;;1.10;;
60239;SDS011;46102;39.012;-7.064;2023-04-28T11:18:19;2.33;;;1.05;;
60239;SDS011;46102;39.012;-7.064;2023-04-28T11:20:22;1.35;;;1.15;;
60239;SDS011;46102;39.012;-7.064;2023-04-28T11:22:25;1.58;;;1.00;;
60239;SDS011;46102;39.012;-7.064;2023-04-28T11:24:26;1.55;;;1.10;;
60239;SDS011;46102;39.012;-7.064;2023-04-28T11:26:28;5.05;;;1.08;;
60239;SDS011;46102;39.012;-7.064;2023-04-28T11:28:29;1.55;;;1.02;;
60239;SDS011;46102;39.012;-7.064;2023-04-28T11:30:30;0.90;;;0.90;;
60239;SDS011;46102;39.012;-7.064;2023-04-28T11:32:33;1.38;;;0.90;;
60239;SDS011;46102;39.012;-7.064;2023-04-28T11:34:35;5.88;;;1.58;;
60239;SDS011;46102;39.012;-7.064;2023-04-28T11:36:37;2.53;;;1.10;;
60239;SDS011;46102;39.012;-7.064;2023-04-28T11:38:42;1.00;;;1.00;;
60239;SDS011;46102;39.012;-7.064;2023-04-28T11:40:55;1.80;;;1.30;;
60239;SDS011;46102;39.012;-7.064;2023-04-28T11:42:57;1.77;;;1.67;;
60239;SDS011;46102;39.012;-7.064;2023-04-28T11:45:03;2.25;;;1.00;;
60239;SDS011;46102;39.012;-7.064;2023-04-28T11:47:04;1.80;;;1.60;;
60239;SDS011;46102;39.012;-7.064;2023-04-28T11:49:06;1.25;;;1.15;;
60239;SDS011;46102;39.012;-7.064;2023-04-28T11:51:06;3.33;;;1.48;;
60239;SDS011;46102;39.012;-7.064;2023-04-28T11:53:07;1.85;;;1.58;;
60239;SDS011;46102;39.012;-7.064;2023-04-28T11:55:08;2.65;;;1.70;;
60239;SDS011;46102;39.012;-7.064;2023-04-28T11:57:16;3.17;;;1.63;;
60239;SDS011;46102;39.012;-7.064;2023-04-28T11:59:22;2.50;;;1.42;;
60239;SDS011;46102;39.012;-7.064;2023-04-28T12:01:25;4.40;;;1.38;;
60239;SDS011;46102;39.012;-7.064;2023-04-28T12:03:26;1.83;;;1.52;;
60239;SDS011;46102;39.012;-7.064;2023-04-28T12:05:27;2.35;;;1.50;;
60239;SDS011;46102;39.012;-7.064;2023-04-28T12:07:28;5.07;;;1.60;;
60239;SDS011;46102;39.012;-7.064;2023-04-28T12:09:29;1.63;;;1.50;;
60239;SDS011;46102;39.012;-7.064;2023-04-28T12:11:30;1.30;;;1.20;;
60239;SDS011;46102;39.012;-7.064;2023-04-28T12:13:31;1.13;;;1.00;;
60239;SDS011;46102;39.012;-7.064;2023-04-28T12:15:41;1.75;;;1.15;;
60239;SDS011;46102;39.012;-7.064;2023-04-28T12:17:42;1.35;;;1.23;;
60239;SDS011;46102;39.012;-7.064;2023-04-28T12:19:43;2.40;;;1.10;;